createdAt,value
2018-07-31T00:02:03.593Z,9.03
2018-07-31T00:04:31.733Z,10.33
2018-07-31T00:06:59.835Z,8.00
2018-07-31T00:09:28.064Z,8.63
2018-07-31T00:11:56.176Z,9.87
2018-07-31T00:14:24.316Z,8.60
2018-07-31T00:16:52.435Z,9.03
2018-07-31T00:19:20.556Z,8.60
2018-07-31T00:21:48.686Z,8.47
2018-07-31T00:24:16.799Z,8.17
2018-07-31T00:26:44.924Z,8.33
2018-07-31T00:29:13.056Z,8.97
2018-07-31T00:31:41.160Z,8.47
2018-07-31T00:34:09.300Z,8.47
2018-07-31T00:36:37.425Z,9.73
2018-07-31T00:39:07.431Z,8.87
2018-07-31T00:41:35.583Z,9.37
2018-07-31T00:44:03.739Z,10.23
2018-07-31T00:46:31.872Z,9.27
2018-07-31T00:49:00.012Z,8.53
2018-07-31T00:51:28.172Z,9.40
2018-07-31T00:53:56.291Z,8.23
2018-07-31T00:56:24.432Z,8.70
2018-07-31T00:58:52.791Z,8.10
2018-07-31T01:01:20.904Z,7.87
2018-07-31T01:03:49.056Z,8.40
2018-07-31T01:06:21.481Z,8.73
2018-07-31T01:08:49.656Z,7.37
2018-07-31T01:11:17.778Z,8.33
2018-07-31T01:13:45.911Z,7.20
2018-07-31T01:16:14.053Z,7.63
2018-07-31T01:18:42.202Z,9.10
2018-07-31T01:21:10.345Z,8.20
2018-07-31T01:23:38.547Z,9.20
2018-07-31T01:26:06.689Z,10.57
2018-07-31T01:28:34.859Z,9.13
2018-07-31T01:31:03.022Z,9.20
2018-07-31T01:33:31.135Z,9.23
2018-07-31T01:35:59.348Z,9.57
2018-07-31T01:38:27.476Z,7.93
2018-07-31T01:40:55.688Z,8.60
2018-07-31T01:43:24.936Z,7.90
2018-07-31T01:45:53.101Z,8.10
2018-07-31T01:48:21.217Z,8.93
2018-07-31T01:50:49.416Z,9.40
2018-07-31T01:53:17.564Z,8.23
2018-07-31T01:55:45.695Z,8.97
2018-07-31T01:58:13.836Z,9.57
2018-07-31T02:00:41.987Z,9.23
2018-07-31T02:03:10.133Z,9.50
2018-07-31T02:05:38.330Z,8.40
2018-07-31T02:08:06.450Z,8.87
2018-07-31T02:10:34.583Z,8.70
2018-07-31T02:13:02.761Z,12.40
2018-07-31T02:15:30.932Z,8.90
2018-07-31T02:17:59.072Z,10.00
2018-07-31T02:20:27.243Z,9.17
2018-07-31T02:22:55.396Z,8.67
2018-07-31T02:25:23.550Z,8.63
2018-07-31T02:27:51.688Z,8.97
2018-07-31T02:30:21.379Z,9.03
2018-07-31T02:32:50.572Z,9.60
2018-07-31T02:35:18.959Z,8.90
2018-07-31T02:37:47.076Z,9.83
2018-07-31T02:40:15.236Z,9.40
2018-07-31T02:42:43.368Z,12.30
2018-07-31T02:45:13.302Z,11.33
2018-07-31T02:47:42.076Z,8.97
2018-07-31T02:50:10.343Z,9.83
2018-07-31T02:52:38.639Z,9.80
2018-07-31T02:55:07.138Z,10.57
2018-07-31T02:57:35.358Z,9.63
2018-07-31T03:00:03.763Z,10.97
2018-07-31T03:02:31.916Z,9.70
2018-07-31T03:05:00.078Z,11.10
2018-07-31T03:07:28.216Z,9.87
2018-07-31T03:09:56.351Z,9.50
2018-07-31T03:12:24.669Z,10.20
2018-07-31T03:14:53.016Z,9.80
2018-07-31T03:17:21.308Z,10.03
2018-07-31T03:19:49.480Z,9.60
2018-07-31T03:22:17.639Z,10.93
2018-07-31T03:24:45.803Z,11.57
2018-07-31T03:27:13.951Z,10.20
2018-07-31T03:29:42.094Z,11.10
2018-07-31T03:32:10.227Z,11.97
2018-07-31T03:34:38.410Z,14.53
2018-07-31T03:37:06.558Z,11.47
2018-07-31T03:39:34.691Z,10.93
2018-07-31T03:42:02.856Z,10.20
2018-07-31T03:44:31.023Z,10.73
2018-07-31T03:46:59.181Z,12.83
2018-07-31T03:49:27.324Z,10.27
2018-07-31T03:51:55.452Z,11.30
2018-07-31T03:54:24.676Z,10.50
2018-07-31T03:56:52.807Z,12.50
2018-07-31T03:59:20.955Z,12.47
2018-07-31T04:01:49.124Z,11.50
2018-07-31T04:04:17.256Z,11.00
2018-07-31T04:06:45.471Z,11.03
2018-07-31T04:09:13.908Z,10.60
2018-07-31T04:11:42.601Z,9.83
2018-07-31T04:14:11.081Z,12.50
2018-07-31T04:16:39.507Z,15.37
2018-07-31T04:19:07.641Z,12.53
2018-07-31T04:21:35.798Z,10.40
2018-07-31T04:24:03.961Z,13.93
2018-07-31T04:26:32.099Z,11.20
2018-07-31T04:29:00.265Z,12.70
2018-07-31T04:31:28.430Z,11.47
2018-07-31T04:33:57.087Z,11.67
2018-07-31T04:36:25.271Z,11.73
2018-07-31T04:38:53.404Z,11.50
2018-07-31T04:41:21.584Z,12.87
2018-07-31T04:43:49.723Z,11.60
2018-07-31T04:46:17.885Z,10.20
2018-07-31T04:48:46.040Z,13.07
2018-07-31T04:51:14.181Z,11.73
2018-07-31T04:53:42.296Z,15.57
2018-07-31T04:56:10.420Z,12.77
2018-07-31T04:58:38.578Z,10.70
2018-07-31T05:01:06.758Z,11.10
2018-07-31T05:03:34.901Z,12.20
2018-07-31T05:06:03.037Z,12.03
2018-07-31T05:08:31.270Z,12.97
2018-07-31T05:10:59.434Z,11.77
2018-07-31T05:13:27.588Z,11.30
2018-07-31T05:15:55.732Z,12.13
2018-07-31T05:18:23.928Z,12.67
2018-07-31T05:20:52.063Z,11.80
2018-07-31T05:23:20.211Z,10.63
2018-07-31T05:25:48.359Z,13.57
2018-07-31T05:28:16.535Z,10.97
2018-07-31T05:30:44.663Z,12.00
2018-07-31T05:33:12.801Z,11.60
2018-07-31T05:35:40.931Z,11.23
2018-07-31T05:38:09.086Z,11.90
2018-07-31T05:40:37.253Z,11.87
2018-07-31T05:43:05.411Z,14.30
2018-07-31T05:45:33.585Z,21.47
2018-07-31T05:48:01.722Z,12.20
2018-07-31T05:50:29.868Z,10.80
2018-07-31T05:52:58.002Z,9.93
2018-07-31T05:55:26.138Z,15.10
2018-07-31T05:57:54.322Z,11.17
2018-07-31T06:00:23.144Z,12.43
2018-07-31T06:02:51.296Z,12.10
2018-07-31T06:05:19.444Z,10.13
2018-07-31T06:07:47.599Z,10.30
2018-07-31T06:10:15.732Z,9.77
2018-07-31T06:12:43.863Z,10.73
2018-07-31T06:15:12.077Z,9.43
2018-07-31T06:17:40.168Z,9.53
2018-07-31T06:20:11.496Z,9.90
2018-07-31T06:22:39.642Z,8.80
2018-07-31T06:25:07.851Z,14.90
2018-07-31T06:27:36.348Z,9.50
2018-07-31T06:30:05.684Z,9.03
2018-07-31T06:32:33.823Z,10.47
2018-07-31T06:35:01.948Z,11.20
2018-07-31T06:37:30.089Z,10.10
2018-07-31T06:39:58.296Z,9.37
2018-07-31T06:42:27.019Z,10.13
2018-07-31T06:44:55.137Z,8.63
2018-07-31T06:47:23.279Z,10.20
2018-07-31T06:49:51.434Z,9.10
2018-07-31T06:52:19.554Z,8.30
2018-07-31T06:54:47.731Z,10.20
2018-07-31T06:57:15.866Z,8.97
2018-07-31T06:59:43.995Z,9.83
2018-07-31T07:02:12.205Z,8.97
2018-07-31T07:04:40.248Z,9.40
2018-07-31T07:07:08.410Z,9.13
2018-07-31T07:09:36.578Z,11.37
2018-07-31T07:12:04.760Z,8.57
2018-07-31T07:14:32.908Z,9.70
2018-07-31T07:17:02.050Z,11.10
2018-07-31T07:19:30.192Z,9.43
2018-07-31T07:21:58.316Z,9.47
2018-07-31T07:24:26.503Z,8.73
2018-07-31T07:26:54.639Z,9.47
2018-07-31T07:29:22.773Z,12.10
2018-07-31T07:31:50.892Z,8.83
2018-07-31T07:34:19.042Z,9.33
2018-07-31T07:36:47.159Z,9.53
2018-07-31T07:39:15.329Z,9.50
2018-07-31T07:41:43.469Z,12.57
2018-07-31T07:44:11.737Z,9.73
2018-07-31T07:46:40.044Z,8.37
2018-07-31T07:49:08.590Z,8.93
2018-07-31T07:51:36.742Z,10.00
2018-07-31T07:54:05.015Z,11.40
2018-07-31T07:56:33.140Z,9.13
2018-07-31T07:59:01.306Z,8.87
2018-07-31T08:01:29.466Z,8.43
2018-07-31T08:03:57.593Z,10.80
2018-07-31T08:06:25.721Z,9.00
2018-07-31T08:08:53.851Z,8.73
2018-07-31T08:11:21.979Z,9.03
2018-07-31T08:13:50.120Z,9.70
2018-07-31T08:16:18.277Z,10.37
2018-07-31T08:18:46.404Z,9.60
2018-07-31T08:21:14.535Z,9.40
2018-07-31T08:23:42.674Z,8.43
2018-07-31T08:26:10.801Z,9.37
2018-07-31T08:28:38.950Z,9.90
2018-07-31T08:31:07.150Z,10.50
2018-07-31T08:33:35.336Z,8.97
2018-07-31T08:36:03.395Z,9.30
2018-07-31T08:38:31.519Z,8.90
2018-07-31T08:40:59.656Z,12.67
2018-07-31T08:43:27.837Z,10.67
2018-07-31T08:45:55.991Z,11.70
2018-07-31T08:48:24.116Z,10.57
2018-07-31T08:50:52.263Z,11.57
2018-07-31T08:53:20.415Z,10.60
2018-07-31T08:55:48.659Z,10.43
2018-07-31T08:58:16.723Z,9.97
2018-07-31T09:00:44.877Z,10.20
2018-07-31T09:03:13.068Z,11.07
2018-07-31T09:05:41.223Z,11.70
2018-07-31T09:08:09.400Z,12.30
2018-07-31T09:10:37.570Z,11.47
2018-07-31T09:13:05.716Z,12.40
2018-07-31T09:15:33.850Z,11.70
2018-07-31T09:18:02.004Z,13.17
2018-07-31T09:20:30.139Z,11.20
2018-07-31T09:22:58.264Z,13.03
2018-07-31T09:25:26.415Z,11.53
2018-07-31T09:27:54.540Z,12.17
2018-07-31T09:30:22.699Z,10.90
2018-07-31T09:35:44.068Z,11.47
2018-07-31T09:38:12.295Z,10.43
2018-07-31T09:40:40.429Z,9.70
2018-07-31T09:43:08.565Z,10.13
2018-07-31T09:45:36.744Z,11.90
2018-07-31T09:48:04.891Z,10.37
2018-07-31T09:50:33.067Z,9.80
2018-07-31T09:53:01.144Z,10.10
2018-07-31T09:55:29.279Z,10.90
2018-07-31T09:57:57.421Z,10.50
2018-07-31T10:00:30.832Z,9.37
2018-07-31T10:02:58.951Z,9.67
2018-07-31T10:05:27.091Z,10.20
2018-07-31T10:07:55.199Z,9.83
2018-07-31T10:10:23.407Z,9.80
2018-07-31T10:12:51.547Z,9.83
2018-07-31T10:15:19.667Z,8.73
2018-07-31T10:17:47.835Z,8.97
2018-07-31T10:20:15.975Z,9.20
2018-07-31T10:22:44.101Z,9.13
2018-07-31T10:25:12.215Z,9.13
2018-07-31T10:27:40.347Z,8.63
2018-07-31T10:30:08.621Z,9.63
2018-07-31T10:32:36.758Z,9.63
2018-07-31T10:35:04.991Z,9.00
2018-07-31T10:37:33.166Z,9.50
2018-07-31T10:40:01.269Z,9.63
2018-07-31T10:42:29.395Z,9.83
2018-07-31T10:44:57.535Z,8.97
2018-07-31T10:47:25.711Z,8.90
2018-07-31T10:49:53.830Z,9.97
2018-07-31T10:52:21.978Z,7.87
2018-07-31T10:54:50.117Z,9.00
2018-07-31T10:57:18.248Z,8.53
2018-07-31T10:59:46.496Z,9.00
2018-07-31T11:02:14.321Z,9.40
2018-07-31T11:04:42.444Z,8.33
2018-07-31T11:07:10.588Z,8.10
2018-07-31T11:09:38.701Z,8.30
2018-07-31T11:12:06.847Z,8.90
2018-07-31T11:14:34.975Z,8.47
2018-07-31T11:17:03.095Z,7.97
2018-07-31T11:19:31.281Z,7.43
2018-07-31T11:21:59.423Z,7.50
2018-07-31T11:24:27.538Z,7.33
2018-07-31T11:26:55.675Z,8.53
2018-07-31T11:29:23.795Z,8.57
2018-07-31T11:31:53.471Z,9.30
2018-07-31T11:34:21.684Z,7.60
2018-07-31T11:36:49.799Z,8.63
2018-07-31T11:39:17.920Z,8.87
2018-07-31T11:41:46.053Z,8.60
2018-07-31T11:44:14.163Z,7.47
2018-07-31T11:46:42.299Z,8.37
2018-07-31T11:49:10.419Z,8.83
2018-07-31T11:51:38.544Z,7.40
2018-07-31T11:54:06.669Z,7.57
2018-07-31T11:56:34.850Z,7.30
2018-07-31T11:59:03.074Z,7.30
2018-07-31T12:01:31.259Z,7.63
2018-07-31T12:03:59.675Z,7.10
2018-07-31T12:06:27.839Z,6.60
2018-07-31T12:08:55.947Z,7.37
2018-07-31T12:11:24.088Z,6.87
2018-07-31T12:13:52.612Z,6.40
2018-07-31T12:16:20.684Z,6.20
2018-07-31T12:18:48.923Z,6.20
2018-07-31T12:21:17.071Z,6.90
2018-07-31T12:23:45.254Z,6.70
2018-07-31T12:26:13.423Z,6.93
2018-07-31T12:28:41.550Z,6.57
2018-07-31T12:31:09.695Z,7.03
2018-07-31T12:33:37.867Z,6.63
2018-07-31T12:36:06.541Z,7.00
2018-07-31T12:38:34.737Z,7.20
2018-07-31T12:41:02.785Z,6.50
2018-07-31T12:43:30.998Z,6.77
2018-07-31T12:45:59.139Z,6.57
2018-07-31T12:48:27.280Z,6.07
2018-07-31T12:50:55.424Z,6.40
2018-07-31T12:53:23.555Z,6.87
2018-07-31T12:55:51.671Z,6.20
2018-07-31T12:58:19.845Z,7.67
2018-07-31T13:00:48.000Z,6.50
2018-07-31T13:03:16.131Z,6.40
2018-07-31T13:05:44.258Z,8.17
2018-07-31T13:08:12.460Z,7.40
2018-07-31T13:10:40.589Z,6.27
2018-07-31T13:13:08.766Z,7.53
2018-07-31T13:15:36.856Z,7.50
2018-07-31T13:18:09.839Z,6.70
2018-07-31T13:20:38.051Z,7.80
2018-07-31T13:23:06.196Z,6.87
2018-07-31T13:25:34.578Z,6.60
2018-07-31T13:28:02.744Z,6.73
2018-07-31T13:30:30.934Z,7.17
2018-07-31T13:32:59.048Z,6.30
2018-07-31T13:35:27.186Z,6.97
2018-07-31T13:37:55.308Z,7.10
2018-07-31T13:40:23.430Z,7.00
2018-07-31T13:42:51.595Z,6.20
2018-07-31T13:45:19.743Z,6.93
2018-07-31T13:47:47.936Z,6.90
2018-07-31T13:50:16.117Z,6.33
2018-07-31T13:52:44.246Z,6.57
2018-07-31T13:55:12.486Z,6.57
2018-07-31T13:57:40.833Z,7.03
2018-07-31T14:00:08.948Z,7.63
2018-07-31T14:02:37.070Z,6.43
2018-07-31T14:05:05.224Z,9.73
2018-07-31T14:07:33.347Z,8.00
2018-07-31T14:10:01.484Z,7.03
2018-07-31T14:12:29.759Z,7.00
2018-07-31T14:14:57.862Z,6.80
2018-07-31T14:17:26.355Z,6.23
2018-07-31T14:19:54.463Z,6.20
2018-07-31T14:22:22.590Z,6.97
2018-07-31T14:24:50.734Z,7.10
2018-07-31T14:27:18.879Z,7.20
2018-07-31T14:29:47.100Z,7.77
2018-07-31T14:32:15.231Z,7.47
2018-07-31T14:34:43.354Z,6.83
2018-07-31T14:37:11.476Z,6.90
2018-07-31T14:39:39.674Z,7.00
2018-07-31T14:42:08.161Z,6.87
2018-07-31T14:44:36.284Z,10.20
2018-07-31T14:47:04.407Z,6.37
2018-07-31T14:49:32.538Z,7.23
2018-07-31T14:52:00.718Z,7.30
2018-07-31T14:54:28.887Z,6.27
2018-07-31T14:56:56.999Z,7.17
2018-07-31T14:59:25.136Z,7.90
2018-07-31T15:01:53.275Z,7.43
2018-07-31T15:04:21.483Z,6.60
2018-07-31T15:06:49.636Z,6.47
2018-07-31T15:09:17.766Z,9.20
2018-07-31T15:11:45.901Z,6.70
2018-07-31T15:14:15.529Z,7.50
2018-07-31T15:16:43.694Z,7.97
2018-07-31T15:19:11.835Z,6.63
2018-07-31T15:21:39.953Z,6.73
2018-07-31T15:24:08.076Z,7.27
2018-07-31T15:26:36.197Z,6.27
2018-07-31T15:29:04.328Z,7.47
2018-07-31T15:31:32.487Z,6.80
2018-07-31T15:34:00.614Z,6.53
2018-07-31T15:36:28.767Z,7.17
2018-07-31T15:38:56.938Z,7.33
2018-07-31T15:41:25.108Z,7.33
2018-07-31T15:43:53.219Z,8.50
2018-07-31T15:46:21.427Z,7.00
2018-07-31T15:48:49.464Z,8.63
2018-07-31T15:51:17.623Z,6.30
2018-07-31T15:53:45.791Z,6.97
2018-07-31T15:56:13.907Z,6.50
2018-07-31T15:58:42.031Z,7.17
2018-07-31T16:01:10.347Z,7.90
2018-07-31T16:03:38.472Z,7.27
2018-07-31T16:06:06.599Z,9.57
2018-07-31T16:08:34.710Z,10.23
2018-07-31T16:11:02.864Z,7.33
2018-07-31T16:13:30.994Z,7.87
2018-07-31T16:15:59.117Z,10.93
2018-07-31T16:18:27.267Z,6.93
2018-07-31T16:20:55.382Z,6.33
2018-07-31T16:23:23.595Z,7.07
2018-07-31T16:25:51.684Z,6.13
2018-07-31T16:28:19.789Z,7.67
2018-07-31T16:30:48.861Z,9.13
2018-07-31T16:33:16.988Z,8.20
2018-07-31T16:35:45.121Z,8.40
2018-07-31T16:38:13.241Z,8.10
2018-07-31T16:40:41.363Z,7.63
2018-07-31T16:43:09.504Z,9.80
2018-07-31T16:45:37.624Z,8.27
2018-07-31T16:48:05.848Z,7.23
2018-07-31T16:50:34.044Z,7.33
2018-07-31T16:53:02.213Z,11.00
2018-07-31T16:55:30.364Z,7.27
2018-07-31T16:57:58.495Z,7.77
2018-07-31T17:00:26.607Z,7.00
2018-07-31T17:02:54.808Z,7.73
2018-07-31T17:05:22.944Z,7.13
2018-07-31T17:07:51.167Z,6.63
2018-07-31T17:10:19.374Z,7.03
2018-07-31T17:12:47.479Z,7.10
2018-07-31T17:15:15.626Z,6.90
2018-07-31T17:17:43.755Z,8.83
2018-07-31T17:20:11.905Z,6.77
2018-07-31T17:22:40.029Z,6.47
2018-07-31T17:25:08.207Z,9.33
2018-07-31T17:27:36.423Z,6.00
2018-07-31T17:30:05.160Z,9.83
2018-07-31T17:32:33.398Z,5.97
2018-07-31T17:35:01.504Z,8.63
2018-07-31T17:37:29.688Z,10.30
2018-07-31T17:39:57.819Z,5.07
2018-07-31T17:42:26.008Z,5.63
2018-07-31T17:44:54.132Z,6.03
2018-07-31T17:47:22.230Z,5.80
2018-07-31T17:49:50.368Z,5.67
2018-07-31T17:52:18.485Z,5.83
2018-07-31T17:54:46.624Z,5.47
2018-07-31T17:57:15.192Z,5.00
2018-07-31T17:59:43.307Z,5.13
2018-07-31T18:02:11.432Z,5.30
2018-07-31T18:04:39.539Z,5.43
2018-07-31T18:07:07.661Z,6.40
2018-07-31T18:09:35.791Z,5.17
2018-07-31T18:12:03.911Z,4.33
2018-07-31T18:14:32.140Z,5.43
2018-07-31T18:17:00.184Z,5.73
2018-07-31T18:19:28.290Z,5.13
2018-07-31T18:21:56.426Z,5.00
2018-07-31T18:24:24.539Z,4.20
2018-07-31T18:26:52.662Z,14.33
2018-07-31T18:29:20.808Z,6.00
2018-07-31T18:31:48.961Z,6.73
2018-07-31T18:34:17.074Z,4.60
2018-07-31T18:36:45.186Z,8.10
2018-07-31T18:39:13.843Z,4.43
2018-07-31T18:41:42.424Z,5.13
2018-07-31T18:44:10.886Z,3.87
2018-07-31T18:46:39.066Z,5.57
2018-07-31T18:49:07.183Z,4.07
2018-07-31T18:51:35.434Z,4.37
2018-07-31T18:54:03.805Z,8.00
2018-07-31T18:56:31.976Z,4.27
2018-07-31T18:59:00.125Z,6.03
2018-07-31T19:01:28.356Z,4.43
2018-07-31T19:03:56.407Z,4.33
2018-07-31T19:06:24.528Z,5.07
2018-07-31T19:08:52.640Z,5.70
2018-07-31T19:11:20.754Z,6.10
2018-07-31T19:13:48.898Z,4.37
2018-07-31T19:16:17.018Z,5.27
2018-07-31T19:18:45.145Z,4.17
2018-07-31T19:21:13.281Z,5.73
2018-07-31T19:23:41.386Z,6.30
2018-07-31T19:26:09.508Z,4.43
2018-07-31T19:28:37.653Z,6.90
2018-07-31T19:31:05.541Z,5.93
2018-07-31T19:33:33.649Z,6.87
2018-07-31T19:36:01.784Z,7.10
2018-07-31T19:38:29.890Z,6.07
2018-07-31T19:40:58.041Z,5.97
2018-07-31T19:43:26.152Z,4.70
2018-07-31T19:45:54.339Z,5.00
2018-07-31T19:48:22.395Z,8.90
2018-07-31T19:50:50.548Z,4.30
2018-07-31T19:53:18.659Z,6.07
2018-07-31T19:55:46.895Z,7.87
2018-07-31T19:58:15.041Z,8.10
2018-07-31T20:00:43.155Z,5.67
2018-07-31T20:03:12.332Z,4.53
2018-07-31T20:05:40.442Z,4.50
2018-07-31T20:08:08.577Z,9.90
2018-07-31T20:10:36.672Z,4.33
2018-07-31T20:13:05.076Z,8.40
2018-07-31T20:15:33.225Z,5.90
2018-07-31T20:18:01.325Z,4.47
2018-07-31T20:20:29.459Z,9.50
2018-07-31T20:22:57.592Z,5.47
2018-07-31T20:25:25.719Z,5.53
2018-07-31T20:27:53.854Z,8.53
2018-07-31T20:30:21.960Z,12.20
2018-07-31T20:32:50.184Z,6.70
2018-07-31T20:35:18.315Z,17.47
2018-07-31T20:37:46.480Z,8.83
2018-07-31T20:40:14.604Z,6.30
2018-07-31T20:42:42.733Z,15.10
2018-07-31T20:45:10.829Z,9.93
2018-07-31T20:47:39.015Z,7.17
2018-07-31T20:50:07.156Z,9.50
2018-07-31T20:52:35.319Z,10.10
2018-07-31T20:55:03.218Z,7.20
2018-07-31T20:57:31.363Z,9.90
2018-07-31T20:59:59.488Z,6.40
2018-07-31T21:02:27.607Z,6.63
2018-07-31T21:04:55.728Z,4.93
2018-07-31T21:07:23.867Z,7.20
2018-07-31T21:09:52.028Z,7.83
2018-07-31T21:12:20.149Z,5.67
2018-07-31T21:14:48.304Z,8.27
2018-07-31T21:17:16.455Z,9.57
2018-07-31T21:19:44.588Z,6.70
2018-07-31T21:22:12.711Z,5.67
2018-07-31T21:24:40.822Z,6.20
2018-07-31T21:27:08.953Z,10.83
2018-07-31T21:29:37.104Z,5.10
2018-07-31T21:32:05.241Z,9.03
2018-07-31T21:34:33.439Z,6.07
2018-07-31T21:37:01.604Z,8.73
2018-07-31T21:39:29.728Z,7.07
2018-07-31T21:41:57.863Z,7.73
2018-07-31T21:44:25.983Z,5.20
2018-07-31T21:46:54.163Z,13.90
2018-07-31T21:49:22.330Z,7.93
2018-07-31T21:51:50.535Z,7.80
2018-07-31T21:54:18.647Z,5.73
2018-07-31T21:56:46.795Z,6.40
2018-07-31T21:59:14.957Z,4.60
2018-07-31T22:01:43.164Z,9.27
2018-07-31T22:04:11.303Z,4.37
2018-07-31T22:06:39.420Z,8.93
2018-07-31T22:09:08.286Z,4.63
2018-07-31T22:11:36.499Z,7.53
2018-07-31T22:14:04.694Z,6.03
2018-07-31T22:16:32.872Z,7.50
2018-07-31T22:19:01.119Z,5.93
2018-07-31T22:21:29.310Z,8.07
2018-07-31T22:23:57.472Z,9.30
2018-07-31T22:26:25.578Z,4.30
2018-07-31T22:28:53.851Z,4.53
2018-07-31T22:31:21.983Z,7.00
2018-07-31T22:33:50.107Z,7.17
2018-07-31T22:36:18.239Z,6.60
2018-07-31T22:38:46.393Z,6.93
2018-07-31T22:41:14.588Z,10.13
2018-07-31T22:43:42.853Z,8.10
2018-07-31T22:46:10.926Z,6.60
2018-07-31T22:48:39.075Z,9.17
2018-07-31T22:51:07.202Z,8.47
2018-07-31T22:53:35.328Z,9.87
2018-07-31T22:56:03.450Z,6.80
2018-07-31T22:58:31.388Z,5.40
2018-07-31T23:00:59.528Z,6.90
2018-07-31T23:03:27.655Z,6.90
2018-07-31T23:05:55.776Z,5.53
2018-07-31T23:08:24.016Z,6.10
2018-07-31T23:10:52.138Z,5.27
2018-07-31T23:13:20.887Z,5.70
2018-07-31T23:15:49.036Z,7.77
2018-07-31T23:18:17.165Z,6.60
2018-07-31T23:20:45.330Z,6.93
2018-07-31T23:23:13.408Z,5.40
2018-07-31T23:25:41.535Z,7.73
2018-07-31T23:28:09.647Z,5.10
2018-07-31T23:30:37.855Z,5.77
2018-07-31T23:33:06.052Z,3.83
2018-07-31T23:35:34.171Z,5.73
2018-07-31T23:38:02.300Z,3.80
2018-07-31T23:40:30.411Z,4.00
2018-07-31T23:42:58.551Z,4.30
2018-07-31T23:45:26.723Z,5.23
2018-07-31T23:47:54.847Z,4.87
2018-07-31T23:50:22.964Z,3.20
2018-07-31T23:52:51.076Z,5.00
2018-07-31T23:55:19.203Z,5.00
2018-07-31T23:57:47.493Z,3.90
